Foremost, Canada
Current Conditions -  °F | °C
As of 7:00 PM on Friday 19 Dec 2014 (Local Time) from CYXH Reporting Station
Overcast Overcast  
Wind Chill: 28°   Ceiling: 17000
Heat Index: 36°   Visibility: 15mi
Dew Point: 32°   Wind: 10mph
Humidity: 87%   Direction: 210°SSW
Pressure: 29.7"   Gusts: NA
Location:  49.48°N, 111.43°W
Report Text: CYXH 200200Z 21009KT 15SM SCT110 OVC170 02/M00 A2970 RMK AC3AC5 SLP088
Loading
Personal Weather Stations






























Interactive Weather Map New forecast layout! Learn more

10-Day Weather Forecast

Advertisements
Track Severe Weather on mobile